Time;durP1;ratioP1;P1;durP2;ratioP2;P2;SDS_P1;SDS_P2;PMS_P1;PMS_P2;Temp;Humidity;BMP_temperature;BMP_pressure;BME280_temperature;BME280_humidity;BME280_pressure;Samples;Min_cycle;Max_cycle;Signal;HPM_P1;HPM_P2
2022/06/16 00:00:34;;;;;;;11.13;5.82;;;12.30;1.00;;;;;;4976340;28;20146;-75
2022/06/16 00:03:02;;;;;;;8.77;5.82;;;12.30;1.00;;;;;;4989011;28;20409;-75
2022/06/16 00:05:31;;;;;;;10.57;6.03;;;12.30;1.00;;;;;;4990449;28;20027;-75
2022/06/16 00:07:56;;;;;;;9.98;5.80;;;12.50;1.00;;;;;;4987576;28;20027;-76
2022/06/16 00:10:22;;;;;;;10.20;5.93;;;12.60;1.00;;;;;;4981793;28;20034;-75
2022/06/16 00:12:48;;;;;;;11.90;7.00;;;12.50;1.00;;;;;;4985594;28;20035;-76
2022/06/16 00:15:17;;;;;;;9.18;6.03;;;12.50;1.00;;;;;;4989612;28;20081;-75
2022/06/16 00:17:43;;;;;;;8.70;5.60;;;12.50;1.00;;;;;;4984044;28;20026;-75
2022/06/16 00:20:09;;;;;;;9.23;5.72;;;12.40;99.90;;;;;;4981400;28;20674;-76
2022/06/16 00:22:36;;;;;;;8.73;5.40;;;12.50;1.00;;;;;;4982033;28;20030;-76
2022/06/16 00:25:03;;;;;;;8.38;5.65;;;12.50;1.00;;;;;;4982772;28;20141;-75
2022/06/16 00:27:29;;;;;;;8.60;5.85;;;12.60;1.00;;;;;;4989580;28;20026;-76
2022/06/16 00:29:54;;;;;;;8.70;5.60;;;12.60;1.00;;;;;;4976000;28;20418;-75
2022/06/16 00:32:20;;;;;;;8.70;5.45;;;12.60;1.00;;;;;;4978509;28;20030;-76
2022/06/16 00:34:45;;;;;;;11.68;6.43;;;12.60;1.00;;;;;;4986873;28;20378;-75
2022/06/16 00:37:11;;;;;;;7.90;5.72;;;12.50;1.00;;;;;;4976048;28;20031;-76
2022/06/16 00:39:37;;;;;;;8.82;5.78;;;12.40;1.00;;;;;;4988707;28;20034;-75
2022/06/16 00:42:13;;;;;;;10.25;6.10;;;12.30;1.00;;;;;;4975541;28;20077;-75
2022/06/16 00:44:42;;;;;;;8.32;5.72;;;12.30;1.00;;;;;;4967919;28;20026;-76
2022/06/16 00:47:08;;;;;;;10.13;5.82;;;12.40;1.00;;;;;;4982758;28;20053;-75
2022/06/16 00:49:36;;;;;;;10.05;6.30;;;12.30;1.00;;;;;;4988986;28;20029;-76
2022/06/16 00:52:08;;;;;;;11.40;5.75;;;12.30;1.00;;;;;;4985721;28;20032;-75
2022/06/16 00:54:41;;;;;;;10.10;6.90;;;12.40;1.00;;;;;;4977698;28;20173;-75
2022/06/16 00:57:13;;;;;;;10.30;6.43;;;12.40;1.00;;;;;;4985575;28;20033;-76
2022/06/16 00:59:40;;;;;;;8.15;6.50;;;12.50;1.00;;;;;;4991100;28;20462;-76
2022/06/16 01:02:06;;;;;;;9.52;5.88;;;12.60;1.00;;;;;;4988612;28;20074;-75
2022/06/16 01:07:19;;;;;;;7.88;6.13;;;12.60;1.00;;;;;;4967737;28;20065;-75
2022/06/16 01:09:44;;;;;;;9.50;7.03;;;12.60;1.00;;;;;;4994666;28;20034;-75
2022/06/16 01:15:40;;;;;;;7.55;6.10;;;12.50;99.90;;;;;;4980824;28;20080;-76
2022/06/16 01:18:26;;;;;;;9.35;6.20;;;12.50;1.00;;;;;;4982945;28;20022;-75
2022/06/16 01:21:22;;;;;;;9.30;6.10;;;12.40;99.90;;;;;;4967235;28;20037;-75
2022/06/16 01:24:02;;;;;;;11.35;5.90;;;12.40;1.00;;;;;;4970825;28;20083;-75
2022/06/16 01:26:28;;;;;;;;;;;12.40;1.00;;;;;;4975370;28;20043;-75
2022/06/16 01:29:18;;;;;;;8.75;5.15;;;12.50;1.00;;;;;;4990530;28;19913;-76
2022/06/16 01:31:53;;;;;;;13.98;5.68;;;12.40;1.00;;;;;;4982906;28;20035;-75
2022/06/16 01:34:43;;;;;;;13.00;7.07;;;12.40;1.00;;;;;;4973416;28;20042;-75
2022/06/16 01:37:15;;;;;;;7.82;5.65;;;12.30;1.00;;;;;;4974526;28;20031;-75
2022/06/16 01:40:01;;;;;;;9.30;5.95;;;12.30;1.00;;;;;;4974547;28;20042;-75
2022/06/16 01:42:35;;;;;;;8.55;6.30;;;12.30;1.00;;;;;;4974541;28;20173;-76
2022/06/16 01:45:18;;;;;;;9.15;5.63;;;12.20;1.00;;;;;;4974556;28;20101;-76
2022/06/16 01:47:49;;;;;;;8.68;6.13;;;12.20;1.00;;;;;;4974413;28;20023;-76
2022/06/16 01:50:20;;;;;;;9.18;6.20;;;12.20;1.00;;;;;;4974579;28;20037;-75
2022/06/16 01:53:06;;;;;;;13.60;6.55;;;12.10;1.00;;;;;;4988212;28;20382;-76
2022/06/16 01:55:36;;;;;;;10.43;6.32;;;12.10;1.00;;;;;;4974310;28;20457;-76
2022/06/16 01:58:13;;;;;;;10.00;6.28;;;12.20;1.00;;;;;;4988033;28;20043;-76
2022/06/16 02:00:43;;;;;;;9.23;5.55;;;12.20;1.00;;;;;;4993684;28;20026;-75
2022/06/16 02:03:20;;;;;;;8.30;5.82;;;12.10;1.00;;;;;;4979626;28;20122;-76
2022/06/16 02:05:54;;;;;;;7.57;5.47;;;12.10;1.00;;;;;;4974312;28;20045;-75
2022/06/16 02:08:27;;;;;;;9.70;6.18;;;12.00;1.00;;;;;;4974809;28;20062;-76
2022/06/16 02:11:02;;;;;;;9.82;5.78;;;12.10;1.00;;;;;;4986063;28;20489;-76
2022/06/16 02:13:33;;;;;;;10.85;6.00;;;11.90;1.00;;;;;;4973810;28;20031;-75
2022/06/16 02:16:07;;;;;;;10.77;6.18;;;11.80;1.00;;;;;;4973729;28;20037;-76
2022/06/16 02:18:37;;;;;;;8.18;5.90;;;11.70;1.00;;;;;;4973913;28;20426;-76
2022/06/16 02:21:29;;;;;;;8.38;6.00;;;11.50;1.00;;;;;;4973955;28;20486;-76
2022/06/16 02:23:57;;;;;;;10.20;6.18;;;11.40;1.00;;;;;;4987180;28;20027;-76
2022/06/16 02:26:23;;;;;;;8.38;5.32;;;11.20;1.00;;;;;;4974201;28;20019;-75
2022/06/16 02:28:53;;;;;;;10.98;6.10;;;11.10;1.00;;;;;;4973882;28;20023;-76
2022/06/16 02:31:53;;;;;;;9.15;6.03;;;11.00;1.00;;;;;;4973655;28;20098;-76
2022/06/16 02:34:41;;;;;;;8.85;6.22;;;10.90;1.00;;;;;;4973700;28;20050;-75
2022/06/16 02:37:43;;;;;;;9.27;6.50;;;10.80;1.00;;;;;;4973712;28;20030;-75
2022/06/16 02:40:40;;;;;;;9.85;6.93;;;10.70;1.00;;;;;;4961405;28;20019;-76
2022/06/16 02:43:24;;;;;;;10.30;6.72;;;10.60;1.00;;;;;;4971497;28;20065;-75
2022/06/16 02:46:04;;;;;;;9.70;6.18;;;10.50;1.00;;;;;;4973665;28;20033;-76
2022/06/16 02:48:48;;;;;;;13.65;7.00;;;10.50;1.00;;;;;;4959992;28;20022;-75
2022/06/16 02:51:20;;;;;;;12.13;6.95;;;10.50;1.00;;;;;;4973746;28;20031;-76
2022/06/16 02:56:33;;;;;;;10.07;6.68;;;10.60;1.00;;;;;;4973596;28;20122;-75
2022/06/16 02:59:13;;;;;;;9.75;6.50;;;10.60;1.00;;;;;;4973572;28;20109;-76
2022/06/16 03:01:39;;;;;;;11.35;7.20;;;10.60;1.00;;;;;;4971632;28;20039;-76
2022/06/16 03:04:07;;;;;;;10.20;6.55;;;10.70;1.00;;;;;;4962242;28;20027;-75
2022/06/16 03:06:33;;;;;;;10.05;6.20;;;10.60;1.00;;;;;;4973734;28;20027;-76
2022/06/16 03:08:59;;;;;;;10.93;6.70;;;10.70;1.00;;;;;;4960048;28;20033;-76
2022/06/16 03:11:25;;;;;;;9.45;6.13;;;10.70;1.00;;;;;;4973399;28;20023;-76
2022/06/16 03:13:51;;;;;;;10.73;6.70;;;10.80;1.00;;;;;;4973524;28;20022;-76
2022/06/16 03:16:16;;;;;;;11.73;7.00;;;10.80;1.00;;;;;;4973403;28;20027;-76
2022/06/16 03:18:42;;;;;;;8.40;5.90;;;10.90;1.00;;;;;;4959784;28;20166;-76
2022/06/16 03:21:08;;;;;;;11.13;6.55;;;10.90;1.00;;;;;;4973179;28;20023;-76
2022/06/16 03:23:35;;;;;;;10.45;6.43;;;11.00;1.00;;;;;;4973418;28;20033;-76
2022/06/16 03:26:00;;;;;;;11.18;7.15;;;11.00;1.00;;;;;;4974576;28;20046;-76
2022/06/16 03:28:27;;;;;;;9.90;6.97;;;11.10;1.00;;;;;;4977046;28;20027;-76
2022/06/16 03:30:52;;;;;;;10.48;6.57;;;11.20;1.00;;;;;;4976962;28;20023;-76
2022/06/16 03:33:18;;;;;;;9.93;7.10;;;11.20;1.00;;;;;;4976827;28;20512;-76
2022/06/16 03:35:44;;;;;;;11.52;6.55;;;11.20;1.00;;;;;;4976794;28;20462;-76
2022/06/16 03:40:56;;;;;;;10.60;6.32;;;11.30;1.00;;;;;;4976469;28;20038;-76
2022/06/16 03:43:22;;;;;;;10.38;6.68;;;11.40;1.00;;;;;;4968886;28;20035;-76
2022/06/16 03:45:47;;;;;;;11.35;7.40;;;11.50;1.00;;;;;;4970790;28;20402;-76
2022/06/16 03:48:13;;;;;;;10.85;7.38;;;11.60;1.00;;;;;;4963060;28;20023;-75
2022/06/16 03:50:39;;;;;;;10.80;6.93;;;11.70;1.00;;;;;;4976529;28;20027;-76
2022/06/16 03:53:05;;;;;;;12.38;7.85;;;11.80;1.00;;;;;;4976565;28;20097;-76
2022/06/16 03:55:31;;;;;;;11.88;7.35;;;11.90;1.00;;;;;;4976374;28;20031;-76
2022/06/16 03:57:57;;;;;;;10.70;7.53;;;11.90;1.00;;;;;;4976751;28;20018;-76
2022/06/16 04:00:23;;;;;;;11.98;7.13;;;12.00;1.00;;;;;;4976619;28;20490;-76
2022/06/16 04:03:59;;;;;;;10.95;7.70;;;12.10;1.00;;;;;;4976577;28;20027;-76
2022/06/16 04:05:36;;;;;;;10.57;6.53;;;12.20;1.00;;;;;;4976254;28;20081;-76
2022/06/16 04:08:02;;;;;;;10.23;6.63;;;12.20;1.00;;;;;;4976485;28;20501;-76
2022/06/16 04:10:28;;;;;;;9.25;6.80;;;12.30;1.00;;;;;;4976047;28;20027;-76
2022/06/16 04:12:54;;;;;;;10.55;7.38;;;12.30;1.00;;;;;;4976256;28;20089;-76
2022/06/16 04:15:19;;;;;;;11.43;6.97;;;12.40;1.00;;;;;;4975938;28;20034;-76
2022/06/16 04:17:45;;;;;;;12.63;7.32;;;12.50;1.00;;;;;;4965133;28;20439;-76
2022/06/16 04:20:13;;;;;;;10.27;7.32;;;12.50;1.00;;;;;;4970379;28;20027;-76
2022/06/16 04:22:40;;;;;;;10.80;6.68;;;12.40;1.00;;;;;;4965949;28;20074;-75
2022/06/16 04:25:09;;;;;;;12.73;7.00;;;12.50;1.00;;;;;;4975609;28;20051;-76
2022/06/16 04:27:34;;;;;;;10.43;6.93;;;12.60;1.00;;;;;;4976191;28;20386;-76
2022/06/16 04:30:00;;;;;;;9.73;6.72;;;12.70;1.00;;;;;;4978433;28;20101;-76
2022/06/16 04:32:26;;;;;;;9.60;6.75;;;12.80;1.00;;;;;;4975614;28;20101;-75
2022/06/16 04:34:51;;;;;;;13.85;7.15;;;12.90;1.00;;;;;;4975627;28;20069;-76
2022/06/16 04:37:17;;;;;;;10.65;6.47;;;13.00;1.00;;;;;;4966958;28;20023;-76
2022/06/16 04:39:42;;;;;;;10.70;6.60;;;13.20;1.00;;;;;;4969831;28;20059;-76
2022/06/16 04:42:08;;;;;;;12.40;7.18;;;13.50;1.00;;;;;;4973390;28;20035;-76
2022/06/16 04:44:34;;;;;;;9.68;7.00;;;13.70;1.00;;;;;;4975117;28;20489;-76
2022/06/16 04:47:02;;;;;;;8.73;6.80;;;15.80;99.90;;;;;;4975449;28;20019;-76
2022/06/16 04:49:29;;;;;;;10.70;6.78;;;18.20;99.90;;;;;;4975651;28;20161;-76
2022/06/16 04:51:54;;;;;;;8.43;6.68;;;19.60;99.90;;;;;;4975319;28;20030;-77
2022/06/16 04:54:20;;;;;;;8.50;6.10;;;21.60;99.90;;;;;;4975901;28;20019;-76
2022/06/16 04:56:46;;;;;;;11.48;5.63;;;22.90;99.90;;;;;;4961579;28;20058;-77
2022/06/16 04:59:13;;;;;;;8.65;5.28;;;21.50;99.90;;;;;;4974045;28;20023;-76
2022/06/16 05:01:39;;;;;;;7.95;5.55;;;20.80;99.90;;;;;;4986870;28;20373;-76
2022/06/16 05:04:06;;;;;;;10.82;6.68;;;19.20;99.90;;;;;;4976954;28;20025;-77
2022/06/16 05:06:31;;;;;;;7.30;5.65;;;18.60;99.90;;;;;;4975036;28;20418;-77
2022/06/16 05:08:57;;;;;;;6.85;5.03;;;21.10;99.90;;;;;;4975334;28;20717;-77
2022/06/16 05:11:23;;;;;;;6.47;4.30;;;23.60;99.90;;;;;;4975160;28;20070;-77
2022/06/16 05:13:48;;;;;;;8.00;5.22;;;25.10;99.90;;;;;;4974685;28;20038;-77
2022/06/16 05:16:14;;;;;;;7.00;5.03;;;26.40;99.90;;;;;;4975072;28;20066;-77
2022/06/16 05:18:39;;;;;;;6.57;4.22;;;27.60;99.90;;;;;;4980719;28;20015;-77
2022/06/16 05:21:07;;;;;;;6.53;3.97;;;27.80;99.90;;;;;;4994637;28;20022;-77
2022/06/16 05:23:33;;;;;;;6.20;3.65;;;28.70;99.90;;;;;;4985492;28;20042;-77
2022/06/16 05:25:58;;;;;;;7.32;3.55;;;29.40;99.90;;;;;;4989721;28;20050;-77
2022/06/16 05:28:24;;;;;;;4.95;3.40;;;29.90;99.90;;;;;;4980928;28;20053;-78
2022/06/16 05:30:50;;;;;;;5.22;3.13;;;30.90;99.90;;;;;;4974811;28;20019;-78
2022/06/16 05:33:15;;;;;;;7.15;3.70;;;31.50;99.90;;;;;;4970008;28;20114;-77
2022/06/16 05:35:41;;;;;;;5.53;3.20;;;32.10;99.90;;;;;;4987820;28;20030;-77
2022/06/16 05:38:06;;;;;;;4.13;3.13;;;32.50;99.90;;;;;;4984118;28;20072;-77
2022/06/16 05:40:32;;;;;;;4.55;3.35;;;32.90;99.90;;;;;;4976250;28;20085;-78
2022/06/16 05:42:58;;;;;;;3.72;3.30;;;33.50;99.90;;;;;;4970811;28;20489;-77
2022/06/16 05:45:24;;;;;;;5.00;3.10;;;34.10;99.90;;;;;;4973906;28;20098;-78
2022/06/16 05:47:49;;;;;;;5.05;3.35;;;34.30;99.90;;;;;;4974289;28;20302;-78
2022/06/16 05:50:16;;;;;;;6.30;3.33;;;33.60;99.90;;;;;;4973500;28;20019;-78
2022/06/16 05:52:43;;;;;;;5.28;3.50;;;33.80;99.90;;;;;;4972971;28;20487;-78
2022/06/16 05:55:13;;;;;;;4.80;3.28;;;32.70;99.90;;;;;;4960901;28;20026;-78
2022/06/16 05:57:39;;;;;;;5.00;3.45;;;34.10;99.90;;;;;;4974316;28;20018;-78
2022/06/16 06:00:06;;;;;;;4.15;3.25;;;34.40;99.90;;;;;;4974115;28;20069;-78
2022/06/16 06:02:32;;;;;;;3.45;3.05;;;34.90;99.90;;;;;;4989093;28;20041;-77
2022/06/16 06:04:58;;;;;;;5.68;3.30;;;36.30;99.90;;;;;;4974135;28;20031;-78
2022/06/16 06:07:23;;;;;;;3.70;2.88;;;36.80;99.90;;;;;;4973973;28;20159;-78
2022/06/16 06:18:15;;;;;;;4.78;3.13;;;37.80;99.90;;;;;;4961586;28;20045;-78
2022/06/16 06:20:41;;;;;;;5.50;2.70;;;37.00;99.90;;;;;;4974137;28;20039;-78
2022/06/16 06:23:07;;;;;;;5.03;2.08;;;37.90;99.90;;;;;;4969429;28;20039;-78
2022/06/16 06:25:32;;;;;;;3.40;2.35;;;37.40;99.90;;;;;;4964735;28;20586;-78
2022/06/16 06:27:58;;;;;;;4.55;3.00;;;36.50;99.90;;;;;;4964813;28;20030;-78
2022/06/16 06:30:28;;;;;;;4.43;2.33;;;36.20;99.90;;;;;;4973661;28;20467;-78
2022/06/16 06:32:55;;;;;;;3.67;2.40;;;37.20;99.90;;;;;;4973733;28;20031;-78
2022/06/16 06:35:21;;;;;;;4.38;2.58;;;38.00;99.90;;;;;;4972255;28;20089;-78
2022/06/16 06:37:47;;;;;;;4.43;2.70;;;38.80;99.90;;;;;;4977944;28;20051;-78
2022/06/16 06:40:29;;;;;;;4.40;2.00;;;40.40;99.90;;;;;;4972505;28;20066;-78
2022/06/16 06:42:55;;;;;;;2.88;1.48;;;41.40;99.90;;;;;;4982677;28;20042;-78
2022/06/16 06:45:21;;;;;;;2.35;1.45;;;39.20;99.90;;;;;;4966371;28;20105;-78
2022/06/16 06:47:47;;;;;;;4.63;1.80;;;39.30;99.90;;;;;;4953497;28;20396;-78
2022/06/16 06:50:29;;;;;;;2.75;1.60;;;40.80;99.90;;;;;;4953381;29;20038;-79
2022/06/16 06:52:55;;;;;;;3.83;1.80;;;41.50;99.90;;;;;;4953426;28;20067;-78
2022/06/16 06:55:22;;;;;;;2.33;2.13;;;41.40;99.90;;;;;;4966267;28;20022;-78
2022/06/16 06:57:51;;;;;;;2.63;1.85;;;41.50;99.90;;;;;;4972697;28;20030;-79
2022/06/16 07:00:17;;;;;;;;;;;40.80;99.90;;;;;;4973718;28;20022;-79
2022/06/16 07:02:42;;;;;;;1.95;1.58;;;39.60;99.90;;;;;;4976428;28;19914;-78
2022/06/16 07:05:08;;;;;;;2.70;1.63;;;40.40;99.90;;;;;;4976459;28;20051;-78
2022/06/16 07:07:35;;;;;;;2.38;1.92;;;40.90;99.90;;;;;;4976523;28;20382;-80
2022/06/16 07:10:01;;;;;;;2.40;1.60;;;41.20;99.90;;;;;;4976265;28;20102;-78
2022/06/16 07:12:27;;;;;;;4.95;1.70;;;41.90;99.90;;;;;;4976222;28;20026;-78
2022/06/16 07:14:53;;;;;;;2.15;1.77;;;41.10;99.90;;;;;;4976136;28;20030;-79
2022/06/16 07:17:21;;;;;;;2.78;1.50;;;38.00;99.90;;;;;;4980464;28;20504;-78
2022/06/16 07:19:48;;;;;;;1.92;1.70;;;40.90;99.90;;;;;;4957592;28;20038;-79
2022/06/16 07:22:13;;;;;;;2.83;1.65;;;39.30;99.90;;;;;;4976661;28;20031;-79
2022/06/16 07:24:39;;;;;;;2.88;1.38;;;40.20;99.90;;;;;;4956600;28;20146;-79
2022/06/16 07:27:06;;;;;;;3.28;1.80;;;40.70;99.90;;;;;;4957021;28;20119;-79
2022/06/16 07:29:32;;;;;;;2.45;2.05;;;42.30;99.90;;;;;;4974174;28;20109;-79
2022/06/16 07:31:58;;;;;;;3.67;2.05;;;40.80;99.90;;;;;;4976369;28;20031;-79
2022/06/16 07:34:27;;;;;;;2.42;1.90;;;39.60;99.90;;;;;;4976161;28;20019;-79
2022/06/16 07:36:53;;;;;;;4.53;2.40;;;40.50;99.90;;;;;;4976287;28;20054;-79
2022/06/16 07:39:19;;;;;;;2.65;1.90;;;42.50;99.90;;;;;;4976348;28;20069;-79
2022/06/16 07:41:45;;;;;;;3.28;1.90;;;40.30;99.90;;;;;;4976123;28;20027;-79
2022/06/16 07:44:13;;;;;;;3.95;1.95;;;42.90;99.90;;;;;;4976123;28;20109;-78
2022/06/16 07:46:42;;;;;;;4.05;2.10;;;44.50;99.90;;;;;;4978791;28;20100;-76
2022/06/16 07:49:12;;;;;;;3.00;2.55;;;45.20;99.90;;;;;;4995469;28;20846;-76
2022/06/16 07:51:39;;;;;;;2.95;2.17;;;41.40;99.90;;;;;;4995501;28;20030;-76
2022/06/16 07:54:06;;;;;;;2.47;2.00;;;42.50;99.90;;;;;;4995401;28;20080;-76
2022/06/16 07:56:31;;;;;;;3.35;2.08;;;44.00;99.90;;;;;;4995243;28;20096;-76
2022/06/16 07:58:57;;;;;;;2.92;2.30;;;43.40;99.90;;;;;;4995101;28;20474;-76
2022/06/16 08:01:23;;;;;;;3.15;1.90;;;42.90;99.90;;;;;;4995199;28;20018;-76
2022/06/16 08:03:48;;;;;;;2.65;2.30;;;42.40;99.90;;;;;;4989027;28;20039;-76
2022/06/16 08:06:17;;;;;;;4.15;2.40;;;40.90;99.90;;;;;;4975516;28;20474;-77
2022/06/16 08:08:43;;;;;;;2.80;2.60;;;38.50;99.90;;;;;;4975463;28;20375;-76
2022/06/16 08:13:56;;;;;;;3.40;2.20;;;38.70;99.90;;;;;;4979214;28;20701;-76
2022/06/16 08:16:22;;;;;;;3.58;1.95;;;40.60;99.90;;;;;;4968609;28;20562;-76
2022/06/16 08:18:47;;;;;;;4.57;2.53;;;40.70;99.90;;;;;;4966487;28;20535;-76
2022/06/16 08:21:13;;;;;;;3.22;2.17;;;41.90;99.90;;;;;;4956586;28;20055;-77
2022/06/16 08:23:39;;;;;;;3.53;2.60;;;43.20;99.90;;;;;;4956452;28;20139;-76
2022/06/16 08:26:04;;;;;;;3.63;2.30;;;42.60;99.90;;;;;;4955969;28;20054;-76
2022/06/16 08:28:32;;;;;;;3.47;2.30;;;41.90;99.90;;;;;;4975305;28;20054;-76
2022/06/16 08:30:57;;;;;;;2.83;2.17;;;43.30;99.90;;;;;;4975327;28;20019;-76
2022/06/16 08:33:23;;;;;;;5.35;2.70;;;43.10;99.90;;;;;;4974863;28;20027;-76
2022/06/16 08:35:49;;;;;;;2.88;2.65;;;41.70;99.90;;;;;;4975119;28;20034;-76
2022/06/16 08:38:14;;;;;;;3.35;2.58;;;38.10;99.90;;;;;;4975328;28;20061;-76
2022/06/16 08:40:51;;;;;;;3.53;2.63;;;41.70;99.90;;;;;;4975044;28;20158;-76
2022/06/16 08:43:29;;;;;;;3.80;2.72;;;42.10;99.90;;;;;;4975308;28;20033;-76
2022/06/16 08:45:58;;;;;;;3.80;2.63;;;42.20;99.90;;;;;;4974997;28;20530;-76
2022/06/16 08:48:50;;;;;;;3.22;2.40;;;41.40;99.90;;;;;;4984051;28;20030;-76
2022/06/16 08:51:29;;;;;;;4.80;3.30;;;41.30;99.90;;;;;;4975793;28;20378;-76
2022/06/16 08:54:00;;;;;;;;;;;40.90;99.90;;;;;;4975077;28;20019;-76
2022/06/16 08:56:39;;;;;;;4.55;2.30;;;43.30;99.90;;;;;;4974728;28;19913;-76
2022/06/16 08:59:10;;;;;;;3.80;2.47;;;43.70;99.90;;;;;;4974711;28;20026;-76
2022/06/16 09:02:03;;;;;;;4.30;2.67;;;41.50;99.90;;;;;;4955317;28;20079;-76
2022/06/16 09:04:46;;;;;;;4.53;2.55;;;41.70;99.90;;;;;;4985778;28;20051;-75
2022/06/16 09:07:54;;;;;;;3.78;2.60;;;41.70;99.90;;;;;;4968578;28;20027;-78
2022/06/16 09:10:23;;;;;;;6.53;2.67;;;43.90;99.90;;;;;;4940642;28;20039;-78
2022/06/16 09:13:14;;;;;;;4.28;2.72;;;44.10;99.90;;;;;;4952142;28;20094;-78
2022/06/16 09:15:48;;;;;;;4.00;2.55;;;43.30;99.90;;;;;;4954998;29;20195;-78
2022/06/16 09:18:21;;;;;;;3.38;2.58;;;43.70;99.90;;;;;;4955403;28;20098;-78
2022/06/16 09:21:08;;;;;;;4.15;2.50;;;43.80;99.90;;;;;;4979423;28;20037;-75
2022/06/16 09:23:44;;;;;;;4.65;3.15;;;44.00;99.90;;;;;;4962031;28;20035;-75
2022/06/16 09:26:17;;;;;;;11.23;3.58;;;41.00;99.90;;;;;;4974025;28;20050;-75
2022/06/16 09:29:06;;;;;;;7.38;3.40;;;40.60;99.90;;;;;;4981806;28;20035;-76
2022/06/16 09:31:34;;;;;;;;;;;42.70;99.90;;;;;;4971548;28;20081;-76
2022/06/16 09:34:15;;;;;;;3.33;2.57;;;42.10;99.90;;;;;;4969339;28;19906;-76
2022/06/16 09:36:45;;;;;;;4.43;3.00;;;41.60;99.90;;;;;;4956191;28;20297;-75
2022/06/16 09:39:26;;;;;;;4.72;3.00;;;42.30;99.90;;;;;;4961228;28;20027;-78
2022/06/16 09:44:58;;;;;;;3.97;2.95;;;44.10;99.90;;;;;;4974956;28;20034;-75
2022/06/16 09:47:32;;;;;;;4.60;3.35;;;44.40;99.90;;;;;;4963777;28;20383;-76
2022/06/16 09:50:07;;;;;;;5.07;2.92;;;43.70;99.90;;;;;;4955395;29;20523;-76
2022/06/16 09:52:45;;;;;;;5.65;3.22;;;41.50;99.90;;;;;;4971167;28;20015;-76
2022/06/16 09:55:17;;;;;;;5.80;3.10;;;41.90;99.90;;;;;;4955542;28;20415;-76
2022/06/16 09:57:48;;;;;;;4.88;3.30;;;42.10;99.90;;;;;;4955466;28;20027;-76
2022/06/16 10:00:19;;;;;;;3.45;2.90;;;39.90;99.90;;;;;;4955511;29;20027;-76
2022/06/16 10:02:49;;;;;;;3.97;3.55;;;40.70;99.90;;;;;;4963822;28;20030;-76
2022/06/16 10:05:20;;;;;;;4.75;3.17;;;39.10;99.90;;;;;;4975223;28;20034;-76
2022/06/16 10:07:57;;;;;;;4.75;3.35;;;40.30;99.90;;;;;;4974615;28;20476;-75
2022/06/16 10:10:44;;;;;;;7.55;4.13;;;41.20;99.90;;;;;;4974348;28;20109;-75
2022/06/16 10:13:25;;;;;;;5.00;3.50;;;41.50;99.90;;;;;;4974273;28;20537;-75
2022/06/16 10:16:19;;;;;;;5.97;4.10;;;41.70;99.90;;;;;;4974470;28;20027;-75
2022/06/16 10:18:46;;;;;;;4.95;3.80;;;40.30;99.90;;;;;;4974235;28;20161;-75
2022/06/16 10:21:13;;;;;;;5.40;3.72;;;41.10;99.90;;;;;;4973184;28;20413;-75
2022/06/16 10:23:44;;;;;;;4.97;3.70;;;40.70;99.90;;;;;;4973915;28;20049;-75
2022/06/16 10:26:11;;;;;;;4.00;3.60;;;41.70;99.90;;;;;;4972637;28;20062;-75
2022/06/16 10:28:48;;;;;;;6.47;4.15;;;42.20;99.90;;;;;;4974184;28;20449;-76
2022/06/16 10:31:36;;;;;;;4.65;3.30;;;41.30;99.90;;;;;;4974395;28;20065;-76
2022/06/16 10:34:04;;;;;;;5.00;3.70;;;40.90;99.90;;;;;;4974204;28;20635;-75
2022/06/16 10:36:30;;;;;;;4.43;3.30;;;40.20;99.90;;;;;;4969786;28;20281;-76
2022/06/16 10:39:21;;;;;;;4.45;4.03;;;38.70;99.90;;;;;;4961700;28;20038;-75
2022/06/16 10:41:58;;;;;;;5.20;3.80;;;33.40;99.90;;;;;;4974006;28;20019;-75
2022/06/16 10:44:27;;;;;;;5.07;3.45;;;35.50;99.90;;;;;;4972763;28;20042;-75
2022/06/16 10:46:58;;;;;;;3.78;2.92;;;36.90;99.90;;;;;;4973859;28;20106;-75
2022/06/16 10:49:31;;;;;;;3.92;3.13;;;39.30;99.90;;;;;;4973970;28;20031;-75
2022/06/16 10:52:09;;;;;;;5.07;3.15;;;39.80;99.90;;;;;;4971031;28;20050;-76
2022/06/16 10:54:44;;;;;;;5.18;2.92;;;40.00;99.90;;;;;;4962244;28;20023;-76
2022/06/16 10:57:12;;;;;;;4.40;3.30;;;39.60;99.90;;;;;;4955015;28;20498;-75
2022/06/16 10:59:45;;;;;;;3.80;3.35;;;39.40;99.90;;;;;;4954578;28;20027;-76
2022/06/16 11:02:17;;;;;;;6.07;3.90;;;40.40;99.90;;;;;;4954135;28;20066;-75
2022/06/16 11:04:44;;;;;;;4.95;3.17;;;39.40;99.90;;;;;;4954643;28;20030;-76
2022/06/16 11:07:17;;;;;;;4.10;2.40;;;39.80;99.90;;;;;;4955019;28;20054;-76
2022/06/16 11:09:44;;;;;;;6.35;3.72;;;39.30;99.90;;;;;;4954994;28;20058;-76
2022/06/16 11:12:22;;;;;;;4.75;3.17;;;37.90;99.90;;;;;;4954417;28;20046;-76
2022/06/16 11:14:59;;;;;;;4.18;2.85;;;37.70;99.90;;;;;;4954580;28;20102;-76
2022/06/16 11:17:41;;;;;;;4.30;2.92;;;36.70;99.90;;;;;;4953721;28;20106;-76
2022/06/16 11:20:10;;;;;;;6.50;3.63;;;36.10;99.90;;;;;;4954537;28;20056;-76
2022/06/16 11:22:41;;;;;;;4.17;3.23;;;35.50;99.90;;;;;;4954519;28;20106;-76
2022/06/16 11:25:17;;;;;;;5.20;3.70;;;33.50;99.90;;;;;;4953175;28;20368;-76
2022/06/16 11:28:10;;;;;;;4.55;2.75;;;32.10;99.90;;;;;;4954094;28;20035;-76
2022/06/16 11:30:47;;;;;;;4.10;3.25;;;31.30;99.90;;;;;;4956827;28;20164;-76
2022/06/16 11:36:48;;;;;;;6.50;3.25;;;29.30;99.90;;;;;;4954443;28;20082;-76
2022/06/16 11:39:25;;;;;;;6.00;3.67;;;29.30;99.90;;;;;;4954194;28;20023;-76
2022/06/16 11:41:52;;;;;;;3.97;3.13;;;29.20;99.90;;;;;;4954275;28;20411;-76
2022/06/16 11:44:24;;;;;;;4.82;2.92;;;29.30;99.90;;;;;;4954050;28;20074;-76
2022/06/16 11:47:07;;;;;;;3.97;3.00;;;28.30;99.90;;;;;;4954512;28;20027;-76
2022/06/16 11:49:54;;;;;;;4.40;2.83;;;28.10;99.90;;;;;;4976876;28;20026;-76
2022/06/16 11:52:43;;;;;;;3.30;2.45;;;28.20;99.90;;;;;;4977016;28;20034;-76
2022/06/16 11:55:26;;;;;;;3.72;3.08;;;28.10;99.90;;;;;;4976924;28;20030;-76
2022/06/16 11:58:29;;;;;;;3.40;2.30;;;27.20;99.90;;;;;;4975668;28;20022;-76
2022/06/16 12:01:07;;;;;;;3.50;2.67;;;27.50;99.90;;;;;;4976621;28;20031;-76
2022/06/16 12:03:55;;;;;;;3.42;2.47;;;27.40;99.90;;;;;;4976871;28;20042;-76
2022/06/16 12:06:37;;;;;;;3.60;2.70;;;27.30;99.90;;;;;;4976859;28;20030;-76
2022/06/16 12:09:09;;;;;;;4.20;2.67;;;27.30;99.90;;;;;;4976497;28;20033;-76
2022/06/16 12:11:52;;;;;;;4.00;2.63;;;27.40;99.90;;;;;;4976551;28;20110;-76
2022/06/16 12:14:41;;;;;;;3.30;2.40;;;27.60;99.90;;;;;;4976634;28;20073;-76
2022/06/16 12:17:07;;;;;;;4.95;2.45;;;27.50;99.90;;;;;;4976622;28;20486;-76
2022/06/16 12:19:43;;;;;;;3.28;2.28;;;27.00;99.90;;;;;;4976355;28;20023;-76
2022/06/16 12:22:22;;;;;;;3.30;2.33;;;27.50;99.90;;;;;;4976069;28;20031;-76
2022/06/16 12:24:54;;;;;;;2.42;2.22;;;27.50;99.90;;;;;;4975554;28;20074;-76
2022/06/16 12:27:31;;;;;;;3.13;2.22;;;27.40;99.90;;;;;;4975839;28;20134;-76
2022/06/16 12:30:08;;;;;;;4.00;2.28;;;27.40;99.90;;;;;;4976126;28;20524;-76
2022/06/16 12:33:19;;;;;;;2.28;2.08;;;27.30;99.90;;;;;;4976066;28;20365;-76
2022/06/16 12:36:11;;;;;;;3.70;2.42;;;27.00;99.90;;;;;;4970383;28;20534;-76
2022/06/16 12:39:17;;;;;;;4.07;2.95;;;27.40;99.90;;;;;;4976041;28;20367;-76
2022/06/16 12:41:49;;;;;;;4.03;2.60;;;26.90;99.90;;;;;;4954734;28;20046;-76
2022/06/16 12:44:38;;;;;;;2.67;2.30;;;27.40;99.90;;;;;;4975670;28;20110;-76
2022/06/16 12:47:24;;;;;;;4.20;2.50;;;27.40;99.90;;;;;;4975843;28;20034;-76
2022/06/16 12:50:16;;;;;;;3.65;2.78;;;27.30;99.90;;;;;;4975374;28;20030;-76
2022/06/16 12:52:52;;;;;;;2.90;2.30;;;27.40;99.90;;;;;;4975862;28;20631;-76
2022/06/16 12:55:36;;;;;;;4.78;2.80;;;27.00;99.90;;;;;;4975505;28;20551;-76
2022/06/16 12:58:21;;;;;;;3.08;2.67;;;27.20;99.90;;;;;;4975125;28;20027;-77
2022/06/16 13:00:52;;;;;;;4.97;3.00;;;27.10;99.90;;;;;;4975089;28;20039;-76
2022/06/16 13:03:20;;;;;;;4.75;2.78;;;27.30;99.90;;;;;;4975312;28;20039;-76
2022/06/16 13:05:46;;;;;;;3.13;2.87;;;27.20;99.90;;;;;;4975443;28;20492;-76
2022/06/16 13:08:14;;;;;;;4.60;2.70;;;27.20;99.90;;;;;;4975288;28;20102;-76
2022/06/16 13:10:45;;;;;;;3.03;2.67;;;26.90;99.90;;;;;;4975162;28;20497;-76
2022/06/16 13:13:11;;;;;;;2.70;2.40;;;27.00;99.90;;;;;;4975042;28;20030;-76
2022/06/16 13:15:40;;;;;;;3.30;2.92;;;27.20;99.90;;;;;;4975070;28;20054;-76
2022/06/16 13:18:16;;;;;;;2.80;2.50;;;27.20;99.90;;;;;;4975145;28;20019;-76
2022/06/16 13:20:53;;;;;;;3.92;2.63;;;27.20;99.90;;;;;;4974994;28;20041;-76
2022/06/16 13:23:32;;;;;;;3.42;2.78;;;27.50;99.90;;;;;;4975187;28;20030;-76
2022/06/16 13:26:18;;;;;;;3.45;2.67;;;27.10;99.90;;;;;;4974547;28;20059;-76
2022/06/16 13:29:05;;;;;;;5.97;2.60;;;26.70;99.90;;;;;;4974788;28;20109;-76
2022/06/16 13:31:43;;;;;;;4.35;2.75;;;26.80;99.90;;;;;;4974838;28;20037;-76
2022/06/16 13:34:09;;;;;;;4.05;2.80;;;26.90;99.90;;;;;;4975050;28;20030;-76
2022/06/16 13:36:34;;;;;;;3.22;2.30;;;26.20;99.90;;;;;;4974544;28;20102;-76
2022/06/16 13:39:03;;;;;;;4.15;2.45;;;26.30;99.90;;;;;;4974598;28;20451;-76
2022/06/16 13:41:38;;;;;;;4.22;2.70;;;26.60;99.90;;;;;;4974428;28;20659;-76
2022/06/16 13:44:19;;;;;;;3.22;2.80;;;26.60;99.90;;;;;;4974464;28;20463;-76